IN-0028 weather

Pukpui Helipad
Mizoram, India

Public forecast

Using degrees Celsius for public forecast. Weather courtesy of forecast.io.

METAR (pilot weather report)

Report is more than 6 hours old.

Closest report is Lengpui Airport, 54.6 nm (101.0 km) N. Retrieved 2019/08/24 10:00 UTC (7 hours ago):

VELP 241000Z 00000KT 4000 BR FEW008 SCT018 BKN100 28/25 Q1005 NOSIG

TAF (pilot weather forecast)

Closest forecast is Shah Amanat International Airport, 67.3 nm (124.7 km) SW. Retrieved 2019/08/24 12:30 UTC (4 hours ago):

TAF TAF VGEG 241100Z 2412/2518 13007KT 5000 SCT016 SCT110 BECMG 2502/2504 18008KT 5000 SCT018 SCT120 TEMPO 2502/2514 24020KT 2000 -RA/TSRA SCT007 FEW028CB BKN090